Time;durP1;ratioP1;P1;durP2;ratioP2;P2;SDS_P1;SDS_P2;PMS_P1;PMS_P2;Temp;Humidity;BMP_temperature;BMP_pressure;BME280_temperature;BME280_humidity;BME280_pressure;Samples;Min_cycle;Max_cycle;Signal;HPM_P1;HPM_P2
2022/12/28 00:01:29;;;;;;;4.60;1.42;;;4.00;99.90;;;;;;4902900;29;20158;-75
2022/12/28 00:03:57;;;;;;;2.47;1.10;;;4.10;99.90;;;;;;4906302;29;20386;-74
2022/12/28 00:06:25;;;;;;;2.97;1.50;;;4.00;99.90;;;;;;4907644;29;20286;-74
2022/12/28 00:08:54;;;;;;;4.68;1.48;;;3.90;99.90;;;;;;4908437;29;20052;-74
2022/12/28 00:11:21;;;;;;;3.50;1.60;;;3.90;99.90;;;;;;4907868;29;21269;-75
2022/12/28 00:13:47;;;;;;;2.28;1.05;;;3.90;99.90;;;;;;4905991;29;20035;-75
2022/12/28 00:16:20;;;;;;;2.22;1.00;;;4.00;99.90;;;;;;4904272;29;20379;-74
2022/12/28 00:18:46;;;;;;;2.88;1.33;;;4.00;99.90;;;;;;4910827;29;20048;-74
2022/12/28 00:21:11;;;;;;;2.55;1.27;;;4.00;99.90;;;;;;4908465;29;20793;-75
2022/12/28 00:23:37;;;;;;;1.80;1.33;;;3.80;99.90;;;;;;4907395;29;20044;-73
2022/12/28 00:26:09;;;;;;;1.52;0.85;;;3.70;99.90;;;;;;4914115;29;20128;-74
2022/12/28 00:28:35;;;;;;;2.25;1.02;;;3.60;99.90;;;;;;4903639;29;20194;-73
2022/12/28 00:31:01;;;;;;;2.15;1.15;;;3.40;99.90;;;;;;4905752;28;21020;-73
2022/12/28 00:33:27;;;;;;;4.40;1.50;;;3.10;99.90;;;;;;4901370;29;20056;-73
2022/12/28 00:35:58;;;;;;;1.67;1.42;;;3.00;99.90;;;;;;4907393;29;20032;-73
2022/12/28 00:38:24;;;;;;;2.22;1.52;;;2.90;99.90;;;;;;4907719;29;20043;-74
2022/12/28 00:40:50;;;;;;;2.17;1.55;;;2.90;99.90;;;;;;4908461;29;20055;-71
2022/12/28 00:43:16;;;;;;;2.38;1.65;;;2.90;99.90;;;;;;4909182;29;20170;-72
2022/12/28 00:45:46;;;;;;;3.25;1.40;;;3.00;99.90;;;;;;4902725;29;20043;-71
2022/12/28 00:48:12;;;;;;;4.40;2.22;;;3.10;99.90;;;;;;4910367;29;20311;-71
2022/12/28 00:50:38;;;;;;;3.08;1.73;;;3.10;99.90;;;;;;4911483;29;20040;-71
2022/12/28 00:53:04;;;;;;;4.93;1.90;;;3.20;99.90;;;;;;4891586;29;20107;-71
2022/12/28 00:55:29;;;;;;;3.85;2.17;;;3.20;99.90;;;;;;4905206;29;20086;-71
2022/12/28 00:57:58;;;;;;;3.38;1.63;;;3.30;99.90;;;;;;4900189;29;20039;-71
2022/12/28 01:00:24;;;;;;;2.72;1.77;;;3.40;99.90;;;;;;4912773;29;20572;-71
2022/12/28 01:02:49;;;;;;;3.15;1.80;;;3.50;99.90;;;;;;4911539;29;20063;-71
2022/12/28 01:05:15;;;;;;;3.92;2.00;;;3.50;99.90;;;;;;4914256;29;20031;-71
2022/12/28 01:07:41;;;;;;;3.80;1.90;;;3.60;99.90;;;;;;4912905;29;20054;-72
2022/12/28 01:10:07;;;;;;;4.03;1.70;;;3.60;99.90;;;;;;4908042;29;20055;-71
2022/12/28 01:12:33;;;;;;;8.60;1.85;;;3.60;99.90;;;;;;4909968;29;20492;-71
2022/12/28 01:14:58;;;;;;;6.25;2.00;;;3.70;99.90;;;;;;4910707;29;20035;-71
2022/12/28 01:17:24;;;;;;;3.42;1.85;;;3.70;99.90;;;;;;4913765;29;20035;-72
2022/12/28 01:19:49;;;;;;;3.33;2.30;;;3.60;99.90;;;;;;4912827;29;20055;-71
2022/12/28 01:22:15;;;;;;;4.47;2.70;;;3.70;99.90;;;;;;4913411;29;20123;-74
2022/12/28 01:24:41;;;;;;;5.97;2.72;;;3.80;99.90;;;;;;4906200;29;20070;-74
2022/12/28 01:27:06;;;;;;;5.50;2.67;;;3.80;99.90;;;;;;4906961;29;20070;-74
2022/12/28 01:29:32;;;;;;;3.47;2.40;;;3.80;99.90;;;;;;4907456;29;20414;-74
2022/12/28 01:31:58;;;;;;;5.88;2.88;;;3.90;99.90;;;;;;4914235;29;20039;-73
2022/12/28 01:34:24;;;;;;;3.58;2.78;;;3.90;99.90;;;;;;4912933;29;20155;-73
2022/12/28 01:36:49;;;;;;;4.35;2.75;;;3.70;99.90;;;;;;4911414;29;20047;-73
2022/12/28 01:39:15;;;;;;;5.93;2.80;;;3.70;99.90;;;;;;4914353;29;21384;-73
2022/12/28 01:41:41;;;;;;;3.42;2.70;;;3.70;99.90;;;;;;4903637;29;20501;-73
2022/12/28 01:44:09;;;;;;;4.57;2.63;;;3.60;99.90;;;;;;4906528;29;20040;-73
2022/12/28 01:46:37;;;;;;;4.03;2.38;;;3.60;99.90;;;;;;4906653;29;20042;-73
2022/12/28 01:49:15;;;;;;;9.32;3.10;;;3.70;99.90;;;;;;4901547;29;20536;-72
2022/12/28 01:51:50;;;;;;;5.45;2.97;;;3.80;99.90;;;;;;4913417;29;20143;-72
2022/12/28 01:54:18;;;;;;;5.70;3.30;;;3.80;99.90;;;;;;4912289;29;20095;-73
2022/12/28 01:56:44;;;;;;;5.65;2.65;;;3.80;99.90;;;;;;4908601;29;20040;-74
2022/12/28 01:59:11;;;;;;;4.35;2.40;;;3.90;99.90;;;;;;4906618;29;20040;-75
2022/12/28 02:01:36;;;;;;;3.97;2.28;;;3.90;99.90;;;;;;4905382;29;20060;-74
2022/12/28 02:04:02;;;;;;;4.93;2.30;;;4.00;99.90;;;;;;4908261;29;20048;-74
2022/12/28 02:06:29;;;;;;;5.25;3.05;;;4.00;99.90;;;;;;4909214;29;20444;-74
2022/12/28 02:09:08;;;;;;;3.85;2.70;;;4.00;99.90;;;;;;4908696;29;20036;-74
2022/12/28 02:11:36;;;;;;;4.05;2.85;;;4.10;99.90;;;;;;4910090;29;20130;-74
2022/12/28 02:14:02;;;;;;;4.07;2.35;;;4.10;99.90;;;;;;4907367;29;21173;-72
2022/12/28 02:16:27;;;;;;;3.47;2.40;;;4.20;99.90;;;;;;4906311;29;20056;-72
2022/12/28 02:18:54;;;;;;;3.50;2.22;;;4.30;99.90;;;;;;4906249;29;20044;-72
2022/12/28 02:21:54;;;;;;;5.70;2.97;;;4.40;99.90;;;;;;4911479;29;20050;-73
2022/12/28 02:24:48;;;;;;;3.97;2.22;;;4.40;99.90;;;;;;4908462;29;20171;-73
2022/12/28 02:27:22;;;;;;;2.95;2.20;;;4.20;99.90;;;;;;4905138;29;20047;-72
2022/12/28 02:30:08;;;;;;;3.90;2.60;;;3.80;99.90;;;;;;4906653;29;20035;-72
2022/12/28 02:32:42;;;;;;;4.63;2.00;;;3.40;99.90;;;;;;4911181;29;20035;-72
2022/12/28 02:35:32;;;;;;;3.35;2.13;;;3.10;99.90;;;;;;4906870;29;20528;-74
2022/12/28 02:38:01;;;;;;;3.05;2.35;;;2.90;99.90;;;;;;4910106;29;20046;-73
2022/12/28 02:40:45;;;;;;;3.15;2.28;;;2.70;99.90;;;;;;4909341;29;20409;-73
2022/12/28 02:43:12;;;;;;;5.10;2.80;;;2.70;99.90;;;;;;4905817;29;20043;-72
2022/12/28 02:51:31;;;;;;;4.10;1.90;;;3.30;99.90;;;;;;4901341;29;20057;-72
2022/12/28 02:54:03;;;;;;;1.98;1.60;;;3.30;99.90;;;;;;4905132;29;20067;-72
2022/12/28 02:56:47;;;;;;;2.60;1.75;;;3.30;99.90;;;;;;4912484;29;20043;-73
2022/12/28 02:59:22;;;;;;;2.67;1.95;;;3.40;99.90;;;;;;4908790;29;20051;-73
2022/12/28 03:01:59;;;;;;;4.18;1.90;;;3.30;99.90;;;;;;4906276;29;20051;-73
2022/12/28 03:04:52;;;;;;;11.73;6.80;;;3.30;99.90;;;;;;4904449;29;20055;-73
2022/12/28 03:10:08;;;;;;;5.05;3.08;;;3.50;99.90;;;;;;4911780;29;20829;-73
2022/12/28 03:13:04;;;;;;;6.18;3.10;;;3.20;99.90;;;;;;4904908;29;20036;-73
2022/12/28 03:15:35;;;;;;;6.10;2.80;;;2.80;99.90;;;;;;4901015;29;20494;-72
2022/12/28 03:32:12;;;;;;;32.13;16.02;;;2.60;99.90;;;;;;4908293;29;20416;-72
2022/12/28 03:34:37;;;;;;;34.88;17.38;;;2.60;99.90;;;;;;4907291;29;20047;-76
2022/12/28 03:37:06;;;;;;;20.58;11.30;;;2.60;99.90;;;;;;4910061;29;20036;-71
2022/12/28 03:39:43;;;;;;;15.23;8.15;;;2.60;99.90;;;;;;4909191;29;20039;-71
2022/12/28 03:45:41;;;;;;;6.65;3.90;;;2.40;99.90;;;;;;4908038;29;20051;-72
2022/12/28 03:48:09;;;;;;;4.93;2.60;;;2.30;99.90;;;;;;4893046;29;21907;-71
2022/12/28 03:50:37;;;;;;;3.22;2.03;;;2.10;99.90;;;;;;4912464;29;20036;-72
2022/12/28 03:53:03;;;;;;;3.85;2.42;;;1.80;99.90;;;;;;4908603;29;20032;-72
2022/12/28 03:55:29;;;;;;;3.28;2.25;;;1.60;99.90;;;;;;4905047;29;20055;-71
2022/12/28 03:57:55;;;;;;;3.05;2.30;;;1.50;99.90;;;;;;4904737;29;20048;-73
2022/12/28 04:00:21;;;;;;;4.78;2.45;;;1.40;99.90;;;;;;4909038;29;21395;-72
2022/12/28 04:02:46;;;;;;;5.35;2.30;;;1.40;99.90;;;;;;4901890;29;20138;-72
2022/12/28 04:05:12;;;;;;;4.35;2.08;;;1.30;99.90;;;;;;4906118;29;20032;-72
2022/12/28 04:07:38;;;;;;;3.75;2.40;;;1.30;99.90;;;;;;4902511;29;20038;-72
2022/12/28 04:10:04;;;;;;;3.08;2.08;;;1.40;99.90;;;;;;4904505;29;20517;-72
2022/12/28 04:12:29;;;;;;;3.90;2.30;;;1.50;99.90;;;;;;4899529;29;20039;-72
2022/12/28 04:14:55;;;;;;;6.28;2.90;;;1.50;99.90;;;;;;4903505;29;20095;-72
2022/12/28 04:17:20;;;;;;;4.78;2.67;;;1.50;99.90;;;;;;4903993;29;20044;-72
2022/12/28 04:19:46;;;;;;;5.22;3.30;;;1.60;99.90;;;;;;4904767;29;20561;-72
2022/12/28 04:22:12;;;;;;;4.93;2.50;;;1.70;99.90;;;;;;4904681;29;20076;-72
2022/12/28 04:24:37;;;;;;;3.25;1.98;;;1.60;99.90;;;;;;4903973;29;20663;-72
2022/12/28 04:27:03;;;;;;;2.95;2.05;;;1.60;99.90;;;;;;4899702;29;20457;-73
2022/12/28 04:29:28;;;;;;;4.22;2.35;;;1.60;99.90;;;;;;4897173;29;20029;-73
2022/12/28 04:31:54;;;;;;;3.13;1.77;;;1.70;99.90;;;;;;4909675;28;20489;-72
2022/12/28 04:34:20;;;;;;;5.00;2.20;;;1.60;99.90;;;;;;4909200;29;20048;-72
2022/12/28 04:36:46;;;;;;;2.85;1.88;;;1.60;99.90;;;;;;4906680;29;20090;-72
2022/12/28 04:39:12;;;;;;;3.50;2.40;;;1.50;99.90;;;;;;4913965;29;20046;-72
2022/12/28 04:41:39;;;;;;;2.60;1.60;;;1.50;99.90;;;;;;4909677;29;20039;-72
2022/12/28 04:44:04;;;;;;;3.38;2.22;;;1.70;99.90;;;;;;4910772;29;20039;-72
2022/12/28 04:46:31;;;;;;;4.20;2.83;;;1.70;99.90;;;;;;4912061;29;20052;-72
2022/12/28 04:48:56;;;;;;;8.10;4.30;;;1.70;99.90;;;;;;4907824;29;20043;-73
2022/12/28 04:51:24;;;;;;;3.85;2.03;;;1.70;99.90;;;;;;4899249;29;20493;-73
2022/12/28 04:53:50;;;;;;;7.85;4.57;;;1.70;99.90;;;;;;4910328;29;20035;-72
2022/12/28 04:56:18;;;;;;;5.70;3.35;;;1.60;99.90;;;;;;4896301;29;21625;-73
2022/12/28 04:58:45;;;;;;;7.80;2.40;;;1.40;99.90;;;;;;4907882;29;20048;-72
2022/12/28 05:01:14;;;;;;;5.30;2.60;;;1.30;99.90;;;;;;4906576;29;20035;-72
2022/12/28 05:03:41;;;;;;;3.60;2.35;;;1.20;99.90;;;;;;4909776;29;20052;-72
2022/12/28 05:06:16;;;;;;;4.20;2.30;;;1.10;99.90;;;;;;4908517;29;20036;-72
2022/12/28 05:08:42;;;;;;;3.40;2.05;;;1.00;99.90;;;;;;4910817;29;20058;-72
2022/12/28 05:11:14;;;;;;;4.20;2.63;;;0.90;99.90;;;;;;4908372;29;20036;-72
2022/12/28 05:13:39;;;;;;;3.78;2.38;;;0.90;99.90;;;;;;4909627;29;20043;-71
2022/12/28 05:16:08;;;;;;;4.13;2.33;;;0.80;99.90;;;;;;4907488;29;20138;-71
2022/12/28 05:18:34;;;;;;;5.22;2.42;;;0.70;99.90;;;;;;4900568;29;20036;-71
2022/12/28 05:21:09;;;;;;;4.25;3.28;;;0.70;99.90;;;;;;4906499;29;20067;-71
2022/12/28 05:23:36;;;;;;;6.43;2.72;;;0.80;99.90;;;;;;4907386;29;20123;-71
2022/12/28 05:26:06;;;;;;;6.25;3.38;;;0.80;99.90;;;;;;4909108;29;20039;-72
2022/12/28 05:28:32;;;;;;;4.40;2.97;;;0.80;99.90;;;;;;4892061;29;20043;-71
2022/12/28 05:31:00;;;;;;;5.28;2.88;;;0.80;99.90;;;;;;4907077;29;20039;-71
2022/12/28 05:33:27;;;;;;;6.68;3.80;;;0.90;99.90;;;;;;4905467;29;20766;-71
2022/12/28 05:35:52;;;;;;;6.10;3.75;;;1.00;99.90;;;;;;4907990;29;20031;-72
2022/12/28 05:38:18;;;;;;;9.48;4.43;;;1.10;99.90;;;;;;4909519;29;20577;-71
2022/12/28 05:40:43;;;;;;;19.42;8.88;;;1.10;99.90;;;;;;4912314;29;20046;-72
2022/12/28 05:43:09;;;;;;;22.55;11.65;;;1.10;99.90;;;;;;4905919;29;20098;-72
2022/12/28 05:45:35;;;;;;;17.90;9.45;;;1.20;99.90;;;;;;4909066;29;20071;-73
2022/12/28 05:48:00;;;;;;;16.23;10.23;;;1.10;99.90;;;;;;4915519;29;20047;-72
2022/12/28 05:50:26;;;;;;;6.03;3.65;;;1.10;99.90;;;;;;4908738;29;20040;-72
2022/12/28 05:52:52;;;;;;;5.53;3.97;;;1.00;99.90;;;;;;4906736;29;20046;-72
2022/12/28 05:55:17;;;;;;;7.10;4.40;;;0.80;99.90;;;;;;4912014;29;20413;-73
2022/12/28 05:57:43;;;;;;;9.77;5.32;;;0.80;99.90;;;;;;4911035;29;20112;-72
2022/12/28 06:00:09;;;;;;;10.30;6.15;;;0.90;99.90;;;;;;4911831;29;20039;-72
2022/12/28 06:02:34;;;;;;;10.88;6.93;;;1.00;99.90;;;;;;4873213;29;1139301;-73
2022/12/28 06:05:00;;;;;;;11.05;6.00;;;1.10;99.90;;;;;;4906975;29;20047;-72
2022/12/28 06:07:26;;;;;;;10.60;5.40;;;1.20;99.90;;;;;;4905869;29;20027;-72
2022/12/28 06:09:52;;;;;;;9.60;5.65;;;1.30;99.90;;;;;;4902635;29;20512;-72
2022/12/28 06:12:17;;;;;;;10.93;5.35;;;1.20;99.90;;;;;;4882572;29;21855;-72
2022/12/28 06:14:43;;;;;;;13.00;5.55;;;1.20;99.90;;;;;;4902309;29;20052;-72
2022/12/28 06:17:08;;;;;;;8.65;4.78;;;1.20;99.90;;;;;;4905398;29;20028;-72
2022/12/28 06:19:34;;;;;;;8.80;5.60;;;1.20;99.90;;;;;;4903379;29;20035;-72
2022/12/28 06:22:00;;;;;;;13.07;6.57;;;1.10;99.90;;;;;;4901197;29;20126;-72
2022/12/28 06:24:25;;;;;;;17.92;9.75;;;1.10;99.90;;;;;;4901192;29;20040;-72
2022/12/28 06:26:51;;;;;;;27.45;14.43;;;1.20;99.90;;;;;;4900885;29;20048;-73
2022/12/28 06:29:16;;;;;;;24.35;14.90;;;1.20;99.90;;;;;;4900938;29;20861;-72
2022/12/28 06:31:47;;;;;;;31.05;16.65;;;1.20;99.90;;;;;;4905155;29;20080;-73
2022/12/28 06:34:13;;;;;;;21.23;13.57;;;1.20;99.90;;;;;;4907581;29;20126;-72
2022/12/28 06:36:42;;;;;;;21.75;14.15;;;1.20;99.90;;;;;;4909532;29;20214;-72
2022/12/28 06:39:10;;;;;;;25.65;15.05;;;1.10;99.90;;;;;;4909436;29;20044;-71
2022/12/28 06:41:36;;;;;;;13.75;8.38;;;1.00;99.90;;;;;;4905671;29;20044;-71
2022/12/28 06:44:06;;;;;;;11.02;5.88;;;1.00;99.90;;;;;;4909601;29;20986;-72
2022/12/28 06:46:31;;;;;;;11.85;7.53;;;0.90;99.90;;;;;;4909182;29;20040;-71
2022/12/28 06:48:57;;;;;;;15.07;8.80;;;0.70;99.90;;;;;;4897097;29;20067;-71
2022/12/28 06:51:28;;;;;;;13.40;7.65;;;0.70;99.90;;;;;;4900032;29;20046;-71
2022/12/28 06:53:55;;;;;;;16.65;10.88;;;0.80;99.90;;;;;;4907943;29;20047;-71
2022/12/28 06:56:26;;;;;;;27.35;18.42;;;1.00;99.90;;;;;;4906460;29;20519;-71
2022/12/28 06:58:53;;;;;;;25.17;16.85;;;1.20;99.90;;;;;;4906305;29;20032;-72
2022/12/28 07:01:33;;;;;;;19.83;12.25;;;1.30;99.90;;;;;;4909141;29;20036;-72
2022/12/28 07:04:00;;;;;;;11.25;8.05;;;1.50;99.90;;;;;;4906836;29;20035;-72
2022/12/28 07:06:27;;;;;;;10.10;7.90;;;1.50;99.90;;;;;;4895921;29;20127;-71
2022/12/28 07:09:01;;;;;;;12.48;9.02;;;1.60;99.90;;;;;;4894359;29;20075;-72
2022/12/28 07:11:27;;;;;;;11.45;8.82;;;1.50;99.90;;;;;;4906611;29;20421;-71
2022/12/28 07:13:53;;;;;;;13.35;9.13;;;1.50;99.90;;;;;;4907415;29;20061;-72
2022/12/28 07:16:21;;;;;;;16.35;9.75;;;1.40;99.90;;;;;;4903891;29;20871;-72
2022/12/28 07:18:47;;;;;;;15.35;9.63;;;1.10;99.90;;;;;;4907871;29;20496;-71
2022/12/28 07:21:17;;;;;;;13.70;9.50;;;1.00;99.90;;;;;;4911068;29;20149;-71
2022/12/28 07:23:43;;;;;;;13.50;8.52;;;0.90;99.90;;;;;;4888809;29;20052;-72
2022/12/28 07:26:14;;;;;;;12.90;8.10;;;0.90;99.90;;;;;;4889880;29;20059;-72
2022/12/28 07:28:42;;;;;;;;;;;0.90;99.90;;;;;;4906347;29;20047;-72
2022/12/28 07:31:09;;;;;;;12.43;7.97;;;1.00;99.90;;;;;;4909676;29;20037;-72
2022/12/28 07:33:36;;;;;;;22.85;14.07;;;1.20;99.90;;;;;;4907088;29;20044;-72
2022/12/28 07:36:03;;;;;;;22.85;16.52;;;1.40;99.90;;;;;;4909551;29;20039;-73
2022/12/28 07:38:29;;;;;;;22.42;14.95;;;1.70;99.90;;;;;;4907814;29;20141;-72
2022/12/28 07:41:08;;;;;;;25.73;17.27;;;1.90;99.90;;;;;;4909379;29;20073;-72
2022/12/28 07:43:34;;;;;;;29.40;19.40;;;2.10;99.90;;;;;;4906677;29;20509;-71
2022/12/28 07:46:01;;;;;;;31.27;20.17;;;2.20;99.90;;;;;;4906877;29;20594;-71
2022/12/28 07:48:29;;;;;;;35.10;21.75;;;2.40;99.90;;;;;;4907529;29;20044;-71
2022/12/28 07:50:55;;;;;;;30.10;21.30;;;2.50;99.90;;;;;;4912886;29;20031;-72
2022/12/28 07:53:20;;;;;;;33.72;22.58;;;2.50;99.90;;;;;;4912563;29;20042;-72
2022/12/28 07:55:58;;;;;;;30.20;20.58;;;2.50;99.90;;;;;;4912728;29;20045;-72
2022/12/28 07:58:23;;;;;;;34.08;21.75;;;2.60;99.90;;;;;;4906890;29;20058;-74
2022/12/28 08:00:50;;;;;;;35.50;21.55;;;2.80;99.90;;;;;;4907616;29;20039;-74
2022/12/28 08:03:16;;;;;;;30.35;19.58;;;3.00;99.90;;;;;;4904585;29;20455;-71
2022/12/28 08:05:42;;;;;;;26.67;18.42;;;3.30;99.90;;;;;;4903299;29;20134;-71
2022/12/28 08:08:07;;;;;;;26.23;17.55;;;3.50;99.90;;;;;;4897733;29;20036;-72
2022/12/28 08:10:33;;;;;;;25.00;17.23;;;3.60;99.90;;;;;;4912471;29;20036;-69
2022/12/28 08:13:00;;;;;;;26.77;18.10;;;3.80;99.90;;;;;;4909099;29;20118;-71
2022/12/28 08:15:26;;;;;;;24.80;18.42;;;3.90;99.90;;;;;;4915377;29;20111;-71
2022/12/28 08:17:53;;;;;;;36.83;23.00;;;4.10;99.90;;;;;;4914671;29;20056;-73
2022/12/28 08:20:19;;;;;;;41.30;27.25;;;4.20;99.90;;;;;;4914314;29;20579;-74
2022/12/28 08:22:45;;;;;;;26.65;19.05;;;4.40;99.90;;;;;;4910461;29;20643;-74
2022/12/28 08:25:10;;;;;;;27.05;19.35;;;4.50;99.90;;;;;;4914862;29;21309;-71
2022/12/28 08:27:36;;;;;;;28.83;19.58;;;4.60;99.90;;;;;;4914981;29;20037;-73
2022/12/28 08:30:03;;;;;;;23.42;17.23;;;4.50;99.90;;;;;;4916143;29;20654;-73
2022/12/28 08:32:28;;;;;;;22.77;16.13;;;4.50;99.90;;;;;;4913135;29;20883;-73
2022/12/28 08:34:54;;;;;;;38.30;25.05;;;4.60;99.90;;;;;;4905145;29;21089;-74
2022/12/28 08:37:19;;;;;;;29.90;20.08;;;4.70;99.90;;;;;;4905596;29;20075;-74
2022/12/28 08:39:45;;;;;;;27.45;18.42;;;4.80;99.90;;;;;;4910833;29;20036;-74
2022/12/28 08:42:11;;;;;;;23.80;15.77;;;4.90;99.90;;;;;;4903244;29;20052;-74
2022/12/28 08:44:36;;;;;;;28.23;21.15;;;5.00;99.90;;;;;;4910823;29;20056;-74
2022/12/28 08:47:02;;;;;;;32.40;22.02;;;4.80;99.90;;;;;;4907978;29;20150;-73
2022/12/28 08:49:28;;;;;;;35.25;21.17;;;4.70;99.90;;;;;;4916980;29;20704;-74
2022/12/28 08:51:53;;;;;;;26.35;19.45;;;4.60;99.90;;;;;;4912085;29;20730;-73
2022/12/28 08:54:19;;;;;;;37.28;23.70;;;4.40;99.90;;;;;;4913665;29;20138;-73
2022/12/28 08:56:45;;;;;;;41.38;26.27;;;4.40;99.90;;;;;;4916804;29;20146;-73
2022/12/28 08:59:16;;;;;;;34.38;21.95;;;4.60;99.90;;;;;;4913885;29;20130;-75
2022/12/28 09:01:43;;;;;;;35.78;23.10;;;4.80;99.90;;;;;;4908994;29;20039;-75
2022/12/28 09:04:13;;;;;;;24.85;15.27;;;4.90;99.90;;;;;;4897625;29;22155;-75
2022/12/28 09:06:39;;;;;;;20.90;11.70;;;5.10;99.90;;;;;;4915983;29;20054;-74
2022/12/28 09:09:09;;;;;;;21.95;13.20;;;5.40;99.90;;;;;;4911819;29;20047;-76
2022/12/28 09:11:36;;;;;;;19.17;11.98;;;5.60;99.90;;;;;;4905154;29;20031;-76
2022/12/28 09:14:03;;;;;;;15.15;10.15;;;5.80;99.90;;;;;;4907799;29;20045;-75
2022/12/28 09:16:29;;;;;;;18.17;10.93;;;5.90;99.90;;;;;;4905450;29;20497;-77
2022/12/28 09:18:58;;;;;;;20.60;11.15;;;6.00;99.90;;;;;;4905737;29;20043;-76
2022/12/28 09:21:26;;;;;;;36.17;17.50;;;6.00;99.90;;;;;;4912762;29;20028;-75
2022/12/28 09:23:53;;;;;;;23.35;14.27;;;6.00;99.90;;;;;;4906878;29;20105;-75
2022/12/28 09:26:24;;;;;;;22.23;12.18;;;6.10;99.90;;;;;;4909329;29;20044;-77
2022/12/28 09:28:58;;;;;;;18.88;11.57;;;6.10;99.90;;;;;;4913328;29;23146;-75
2022/12/28 09:31:26;;;;;;;18.70;11.00;;;6.20;99.90;;;;;;4894079;29;20501;-76
2022/12/28 09:34:00;;;;;;;39.78;21.27;;;6.30;99.90;;;;;;4909782;29;21670;-75
2022/12/28 09:36:30;;;;;;;44.33;25.67;;;6.30;99.90;;;;;;4912789;29;20075;-76
2022/12/28 09:38:57;;;;;;;65.32;28.45;;;6.40;99.90;;;;;;4912879;29;20080;-76
2022/12/28 09:41:31;;;;;;;35.38;19.33;;;6.40;99.90;;;;;;4912935;29;20044;-77
2022/12/28 09:44:12;;;;;;;39.63;18.95;;;6.30;99.90;;;;;;4910625;29;20138;-76
2022/12/28 09:46:45;;;;;;;31.10;16.58;;;6.20;99.90;;;;;;4905457;29;20082;-75
2022/12/28 09:49:15;;;;;;;24.73;13.13;;;6.00;99.90;;;;;;4904215;29;20040;-75
2022/12/28 09:51:51;;;;;;;12.93;8.02;;;6.00;99.90;;;;;;4914776;29;20058;-75
2022/12/28 09:54:17;;;;;;;8.38;7.50;;;6.00;99.90;;;;;;4911484;29;20059;-75
2022/12/28 09:56:46;;;;;;;9.98;7.15;;;5.90;99.90;;;;;;4917373;29;20502;-70
2022/12/28 09:59:17;;;;;;;10.98;8.05;;;5.80;99.90;;;;;;4909954;29;20119;-70
2022/12/28 10:01:49;;;;;;;14.63;9.13;;;5.80;99.90;;;;;;4913036;29;20039;-71
2022/12/28 10:04:14;;;;;;;14.80;9.32;;;5.70;99.90;;;;;;4894173;29;20516;-70
2022/12/28 10:06:42;;;;;;;12.82;9.20;;;5.80;99.90;;;;;;4913971;29;20040;-71
2022/12/28 10:09:15;;;;;;;14.85;8.38;;;5.90;99.90;;;;;;4893674;29;20040;-71
2022/12/28 10:11:42;;;;;;;11.65;6.82;;;5.90;99.90;;;;;;4911012;29;20509;-71
2022/12/28 10:14:29;;;;;;;11.00;7.25;;;5.90;99.90;;;;;;4917247;29;20069;-71
2022/12/28 10:16:55;;;;;;;14.07;7.60;;;5.90;99.90;;;;;;4911994;29;20039;-70
2022/12/28 10:19:24;;;;;;;11.25;7.95;;;6.00;99.90;;;;;;4906201;29;20135;-71
2022/12/28 10:22:00;;;;;;;15.55;8.07;;;6.20;99.90;;;;;;4916227;29;20059;-70
2022/12/28 10:24:27;;;;;;;9.48;6.35;;;6.40;99.90;;;;;;4912735;29;20084;-71
2022/12/28 10:26:54;;;;;;;14.02;7.30;;;6.50;99.90;;;;;;4913048;29;20035;-71
2022/12/28 10:29:22;;;;;;;14.10;8.02;;;6.60;99.90;;;;;;4902817;29;20039;-71
2022/12/28 10:32:08;;;;;;;14.13;6.35;;;6.70;99.90;;;;;;4907835;29;20032;-77
2022/12/28 10:34:35;;;;;;;9.32;5.72;;;6.70;99.90;;;;;;4910221;29;20036;-76
2022/12/28 10:37:32;;;;;;;12.90;7.45;;;6.70;99.90;;;;;;4908542;29;20035;-77
2022/12/28 10:40:06;;;;;;;20.55;10.70;;;6.70;99.90;;;;;;4908409;29;20094;-77
2022/12/28 10:42:39;;;;;;;23.98;12.65;;;6.70;99.90;;;;;;4907578;29;20056;-76
2022/12/28 10:45:14;;;;;;;21.40;11.60;;;6.70;99.90;;;;;;4912283;29;20111;-76
2022/12/28 10:47:43;;;;;;;11.93;8.25;;;6.70;99.90;;;;;;4913094;29;20044;-76
2022/12/28 10:50:40;;;;;;;11.00;6.00;;;6.80;99.90;;;;;;4911021;29;20502;-75
2022/12/28 10:53:27;;;;;;;7.95;5.60;;;6.80;99.90;;;;;;4905624;29;20528;-74
2022/12/28 10:56:04;;;;;;;9.73;5.95;;;6.90;99.90;;;;;;4904431;29;20064;-75
2022/12/28 10:58:31;;;;;;;14.50;8.35;;;6.90;99.90;;;;;;4890268;29;20113;-75
2022/12/28 11:01:14;;;;;;;13.30;8.02;;;7.00;99.90;;;;;;4898309;29;20071;-75
2022/12/28 11:03:43;;;;;;;19.75;9.90;;;7.00;99.90;;;;;;4913385;29;20056;-75
2022/12/28 11:06:14;;;;;;;14.65;9.35;;;7.00;99.90;;;;;;4908036;29;20074;-75
2022/12/28 11:08:42;;;;;;;24.38;11.00;;;7.10;99.90;;;;;;4910082;29;20031;-75
2022/12/28 11:11:22;;;;;;;19.42;9.45;;;7.10;99.90;;;;;;4910311;29;20032;-73
2022/12/28 11:14:02;;;;;;;13.60;8.35;;;7.10;99.90;;;;;;4906250;29;20035;-74
2022/12/28 11:16:31;;;;;;;14.43;7.70;;;7.20;99.90;;;;;;4909434;29;20044;-72
2022/12/28 11:18:57;;;;;;;14.75;9.30;;;7.20;99.90;;;;;;4894104;29;20028;-74
2022/12/28 11:21:23;;;;;;;13.77;8.25;;;7.20;99.90;;;;;;4910281;29;20066;-73
2022/12/28 11:23:50;;;;;;;15.75;10.63;;;7.30;99.90;;;;;;4901532;29;20055;-73
2022/12/28 11:26:17;;;;;;;14.63;7.47;;;7.30;99.90;;;;;;4908574;29;20024;-73
2022/12/28 11:28:44;;;;;;;13.32;7.15;;;7.40;99.90;;;;;;4907298;29;20039;-73
2022/12/28 11:31:37;;;;;;;14.35;7.63;;;7.30;99.90;;;;;;4909563;29;20027;-73
2022/12/28 11:34:05;;;;;;;15.65;7.75;;;7.20;99.90;;;;;;4905011;29;20110;-73
2022/12/28 11:36:36;;;;;;;19.02;9.50;;;7.20;99.90;;;;;;4912757;29;20067;-72
2022/12/28 11:39:24;;;;;;;19.90;10.13;;;7.20;99.90;;;;;;4902211;29;20038;-73
2022/12/28 11:41:58;;;;;;;24.20;11.88;;;7.40;99.90;;;;;;4911385;29;20294;-73
2022/12/28 11:44:29;;;;;;;15.90;8.35;;;7.50;99.90;;;;;;4909661;29;20048;-73
2022/12/28 11:47:15;;;;;;;9.35;6.28;;;7.50;99.90;;;;;;4911877;29;20143;-73
2022/12/28 11:49:42;;;;;;;7.50;4.95;;;7.60;99.90;;;;;;4911237;29;20056;-71
2022/12/28 11:52:17;;;;;;;8.43;5.05;;;7.60;99.90;;;;;;4917407;29;20046;-71
2022/12/28 11:55:24;;;;;;;8.73;5.03;;;7.60;99.90;;;;;;4913757;29;20138;-71
2022/12/28 11:57:50;;;;;;;7.97;5.57;;;7.60;99.90;;;;;;4916573;29;20047;-71
2022/12/28 12:00:15;;;;;;;11.18;7.93;;;7.60;99.90;;;;;;4918543;29;20091;-72
2022/12/28 12:02:55;;;;;;;8.02;5.28;;;7.70;99.90;;;;;;4914258;28;20055;-71
2022/12/28 12:05:36;;;;;;;11.80;6.70;;;7.70;99.90;;;;;;4902733;29;20114;-71
2022/12/28 12:08:10;;;;;;;9.82;7.00;;;7.70;99.90;;;;;;4908220;28;20040;-72
2022/12/28 12:10:38;;;;;;;36.58;23.88;;;7.70;99.90;;;;;;4901953;29;20087;-73
2022/12/28 12:13:22;;;;;;;18.08;10.27;;;7.60;99.90;;;;;;4904059;29;20036;-73
2022/12/28 12:15:49;;;;;;;20.45;13.77;;;7.60;99.90;;;;;;4909582;29;20048;-73
2022/12/28 12:18:24;;;;;;;35.97;21.73;;;7.60;99.90;;;;;;4908148;29;20564;-72
2022/12/28 12:21:05;;;;;;;106.20;70.88;;;7.60;99.90;;;;;;4910694;29;20043;-72
2022/12/28 12:24:04;;;;;;;17.17;12.48;;;7.60;99.90;;;;;;4912810;29;20059;-73
2022/12/28 12:26:34;;;;;;;15.13;9.30;;;7.50;99.90;;;;;;4908073;28;20402;-71
2022/12/28 12:29:15;;;;;;;20.73;18.60;;;7.40;99.90;;;;;;4916671;29;20381;-71
2022/12/28 12:31:49;;;;;;;12.73;7.68;;;7.40;99.90;;;;;;4910775;29;20039;-71
2022/12/28 12:34:41;;;;;;;9.60;7.03;;;7.40;99.90;;;;;;4910124;29;20043;-71
2022/12/28 12:37:27;;;;;;;13.00;7.22;;;7.30;99.90;;;;;;4906393;29;20067;-71
2022/12/28 12:40:08;;;;;;;10.60;6.88;;;7.20;99.90;;;;;;4908834;29;20044;-71
2022/12/28 12:42:56;;;;;;;11.10;7.18;;;7.20;99.90;;;;;;4908868;29;20392;-71
2022/12/28 12:45:33;;;;;;;11.85;7.57;;;7.30;99.90;;;;;;4910893;29;20043;-75
2022/12/28 12:48:17;;;;;;;14.55;8.73;;;7.40;99.90;;;;;;4915850;29;20046;-75
2022/12/28 12:51:03;;;;;;;17.83;9.93;;;7.40;99.90;;;;;;4905052;29;20051;-74
2022/12/28 12:54:11;;;;;;;23.13;12.60;;;7.50;99.90;;;;;;4894841;29;20058;-74
2022/12/28 12:56:39;;;;;;;9.75;7.00;;;7.60;99.90;;;;;;4912081;28;20460;-75
2022/12/28 12:59:10;;;;;;;10.45;7.07;;;7.60;99.90;;;;;;4919740;29;20050;-74
2022/12/28 13:01:46;;;;;;;12.57;7.03;;;7.60;99.90;;;;;;4908197;29;20036;-75
2022/12/28 13:04:20;;;;;;;9.27;6.82;;;7.50;99.90;;;;;;4904528;29;20036;-80
2022/12/28 13:06:46;;;;;;;15.63;9.65;;;7.50;99.90;;;;;;4905306;29;20070;-77
2022/12/28 13:09:17;;;;;;;10.57;8.43;;;7.50;99.90;;;;;;4903711;29;20745;-76
2022/12/28 13:11:42;;;;;;;9.32;7.10;;;7.50;99.90;;;;;;4907284;29;20037;-76
2022/12/28 13:14:22;;;;;;;13.20;7.97;;;7.60;99.90;;;;;;4907313;29;20083;-74
2022/12/28 13:16:54;;;;;;;13.43;8.98;;;7.50;99.90;;;;;;4898697;29;20040;-75
2022/12/28 13:19:23;;;;;;;13.50;9.00;;;7.50;99.90;;;;;;4891039;29;20191;-73
2022/12/28 13:21:50;;;;;;;11.70;8.68;;;7.50;99.90;;;;;;4904703;29;20032;-76
2022/12/28 13:24:32;;;;;;;11.30;8.63;;;7.50;99.90;;;;;;4906113;29;20381;-70
2022/12/28 13:26:59;;;;;;;13.63;9.27;;;7.40;99.90;;;;;;4907457;29;20157;-73
2022/12/28 13:29:30;;;;;;;12.77;8.40;;;7.50;99.90;;;;;;4911472;29;20028;-74